Portada
METAR-TAF:

METAR-TAF

Aeroports :

Fuzhou, Xina

latitud: 26-05N, longitud: 119-17E, altitud: 85 m

Observació

L'informe es va fer fa 14 minuts, a les 15:00 UTC
Vent 10 kt del Nord/Nord-Est
Temperatura 25°C
Humitat 74%
Pressió 1013 hPa
Visibilitat 10 km o més
Cel ennuvolat a una alçada de 2700 ft

METAR: ZSFZ 221500Z 02005MPS 9999 BKN027 25/20 Q1013 NOSIG

Hora: 23:14 (15:14 UTC)

Pronòstic

L'informe es va fer fa 6 hores i 9 minuts, a les 09:05 UTC
Pronòstic vàlid del 22 a les 12 UTC al 23 a les 12 UTC
Vent 8 kt del Nord-Est
Visibilitat: 6000 m
Cel ennuvolat a una alçada de 1500 ft
Temporalment
l' 23 a les 06 UTC al 23 a les 12 UTC
xàfecs de pluja

TAF: ZSFZ 220905Z 2212/2312 04004MPS 6000 BKN015 TX27/2306Z TN23/2221Z TEMPO 2306/2312 SHRA

Observacions i pronòstics meteorològics de més de 4000 aeroports (METAR i TAF).

Les estacions disponibles són els punts grocs i vermells al mapa.

Posi el ratolí al punt desitjat per veure el nom de l'estació.

Feu clic per veure les observacions i els pronòstics meteorològics.

Per canviar el mapa: feu clic els botons verds amb una creu de color negre per apropar; al botó verd amb un guió per allunyar la imatge; o en les fletxes verdes per a mapes adjacents.


METAR-TAF: